Time;durP1;ratioP1;P1;durP2;ratioP2;P2;SDS_P1;SDS_P2;PMS_P1;PMS_P2;Temp;Humidity;BMP_temperature;BMP_pressure;BME280_temperature;BME280_humidity;BME280_pressure;Samples;Min_cycle;Max_cycle;Signal;HPM_P1;HPM_P2
2022/07/20 00:01:33;;;;;;;3.78;2.17;;;;;;;23.88;30.23;98876.19;5098435;28;20044;-95
2022/07/20 00:03:59;;;;;;;5.55;2.30;;;;;;;23.71;30.66;98899.22;5098521;28;20040;-93
2022/07/20 00:06:25;;;;;;;5.43;2.40;;;;;;;23.38;30.50;98877.31;5098773;28;20044;-93
2022/07/20 00:12:01;;;;;;;3.33;2.20;;;;;;;23.03;30.75;98876.47;5191143;27;20114;-95
2022/07/20 00:14:26;;;;;;;4.20;2.30;;;;;;;23.05;30.48;98897.09;5156313;27;20046;-95
2022/07/20 00:16:52;;;;;;;4.20;2.67;;;;;;;22.96;32.04;98884.16;5156587;27;20051;-95
2022/07/20 00:19:19;;;;;;;3.42;2.38;;;;;;;22.93;31.71;98896.13;5156229;27;20396;-94
2022/07/20 00:21:45;;;;;;;3.17;2.10;;;;;;;22.73;32.30;98875.09;5155623;27;20050;-94
2022/07/20 00:24:11;;;;;;;4.63;2.35;;;;;;;22.60;32.80;98879.69;5155263;27;20035;-94
2022/07/20 00:26:37;;;;;;;4.18;2.25;;;;;;;22.50;32.86;98883.06;5155760;27;20050;-94
2022/07/20 00:29:04;;;;;;;4.65;2.30;;;;;;;22.43;33.18;98894.50;5154216;27;20130;-95
2022/07/20 00:31:30;;;;;;;3.45;2.47;;;;;;;22.40;33.75;98914.53;5155510;27;20039;-94
2022/07/20 00:33:56;;;;;;;5.45;2.90;;;;;;;22.45;34.58;98923.22;5154844;27;20047;-94
2022/07/20 00:36:22;;;;;;;8.30;3.10;;;;;;;22.31;34.93;98921.50;5155835;27;20043;-94
2022/07/20 00:38:48;;;;;;;10.63;3.30;;;;;;;22.14;36.02;98913.69;5156344;27;20043;-94
2022/07/20 00:41:14;;;;;;;6.05;2.85;;;;;;;21.85;35.67;98900.41;5155428;27;20049;-95
2022/07/20 00:43:53;;;;;;;4.20;3.00;;;;;;;21.70;37.01;98905.06;5156333;27;20043;-95
2022/07/20 00:46:21;;;;;;;7.20;3.38;;;;;;;21.57;36.94;98925.00;5153758;27;20066;-93
2022/07/20 00:48:47;;;;;;;5.15;2.80;;;;;;;21.34;36.56;98892.28;5153090;27;20096;-93
2022/07/20 00:51:13;;;;;;;5.10;2.80;;;;;;;21.25;36.76;98892.88;5153624;27;20147;-94
2022/07/20 00:53:39;;;;;;;6.97;2.90;;;;;;;21.31;36.54;98912.25;5153238;27;20039;-93
2022/07/20 00:56:07;;;;;;;4.65;2.72;;;;;;;21.10;36.98;98908.31;5153068;27;20047;-93
2022/07/20 00:58:33;;;;;;;5.70;2.92;;;;;;;20.92;38.34;98895.09;5155079;27;20062;-94
2022/07/20 01:00:59;;;;;;;4.78;2.53;;;;;;;20.99;38.47;98927.13;5155158;27;20096;-96
2022/07/20 01:03:27;;;;;;;4.35;2.45;;;;;;;20.87;38.13;98920.72;5154619;27;20047;-93
2022/07/20 01:05:53;;;;;;;3.90;2.58;;;;;;;20.86;37.99;98930.66;5154498;27;20051;-93
2022/07/20 01:08:19;;;;;;;4.72;2.85;;;;;;;20.72;38.12;98922.59;5152578;27;20088;-94
2022/07/20 01:10:45;;;;;;;4.63;2.55;;;;;;;20.53;37.73;98904.00;5153639;27;20556;-95
2022/07/20 01:13:11;;;;;;;4.05;2.55;;;;;;;20.66;37.53;98931.09;5153138;27;20039;-95
2022/07/20 01:15:37;;;;;;;3.53;2.35;;;;;;;20.56;37.25;98920.03;5152808;27;20046;-96
2022/07/20 01:18:03;;;;;;;4.43;2.42;;;;;;;20.60;36.65;98932.41;5152568;27;20054;-94
2022/07/20 01:20:30;;;;;;;4.10;2.50;;;;;;;20.47;36.19;98905.28;5153003;27;20046;-93
2022/07/20 01:22:57;;;;;;;5.80;2.80;;;;;;;20.59;35.49;98917.13;5140068;27;20053;-93
2022/07/20 01:25:23;;;;;;;3.95;2.50;;;;;;;20.42;35.42;98891.19;5139526;27;20040;-94
2022/07/20 01:27:49;;;;;;;5.40;2.55;;;;;;;20.42;35.83;98893.88;5139441;27;20039;-94
2022/07/20 01:30:15;;;;;;;4.53;2.28;;;;;;;20.44;35.76;98896.50;5138568;27;20388;-94
2022/07/20 01:32:40;;;;;;;3.50;2.40;;;;;;;;;;5138771;27;20035;-94
2022/07/20 01:35:07;;;;;;;3.50;2.50;;;;;;;20.58;35.94;98926.22;5138642;27;20058;-93
2022/07/20 01:37:33;;;;;;;4.03;2.70;;;;;;;20.56;34.53;98895.69;5138355;27;20042;-93
2022/07/20 01:40:00;;;;;;;3.38;2.38;;;;;;;20.57;35.65;98896.56;5139745;27;20032;-95
2022/07/20 01:42:26;;;;;;;9.48;2.90;;;;;;;20.75;34.65;98898.06;5139009;27;20051;-93
2022/07/20 01:44:52;;;;;;;4.47;2.50;;;;;;;20.90;33.65;98904.28;5140075;27;20035;-95
2022/07/20 01:47:18;;;;;;;5.57;2.63;;;;;;;20.95;33.73;98879.63;5139100;27;20067;-94
2022/07/20 01:49:43;;;;;;;3.58;2.65;;;;;;;21.12;33.99;98896.47;5138853;27;20042;-92
2022/07/20 01:52:09;;;;;;;3.40;2.20;;;;;;;21.15;34.26;98881.84;5139050;27;20039;-93
2022/07/20 01:54:35;;;;;;;4.32;2.80;;;;;;;21.33;34.78;98904.91;5138385;27;20067;-94
2022/07/20 01:57:03;;;;;;;4.80;2.70;;;;;;;21.22;34.92;98898.53;5139114;27;20043;-93
2022/07/20 01:59:29;;;;;;;4.78;2.40;;;;;;;20.99;35.06;98886.56;5137753;27;20047;-93
2022/07/20 02:01:55;;;;;;;3.88;2.60;;;;;;;21.09;34.37;98909.31;5137969;27;20043;-92
2022/07/20 02:04:21;;;;;;;4.07;2.58;;;;;;;20.96;34.84;98894.91;5137919;27;20057;-92
2022/07/20 02:06:46;;;;;;;3.90;2.53;;;;;;;20.75;35.77;98881.84;5137754;27;20108;-94
2022/07/20 02:09:12;;;;;;;4.63;2.58;;;;;;;20.65;35.40;98888.84;5137314;27;20040;-94
2022/07/20 02:11:38;;;;;;;4.38;2.60;;;;;;;20.60;36.54;98904.47;5137381;27;20048;-93
2022/07/20 02:14:05;;;;;;;5.65;2.70;;;;;;;20.34;36.29;98873.75;5137445;27;20039;-92
2022/07/20 02:16:31;;;;;;;4.45;2.40;;;;;;;20.41;35.82;98885.91;5137660;27;20039;-93
2022/07/20 02:18:57;;;;;;;4.35;2.70;;;;;;;20.39;35.78;98883.31;5137340;27;20382;-95
2022/07/20 02:21:23;;;;;;;3.60;2.30;;;;;;;20.53;35.80;98904.00;5137488;27;20074;-94
2022/07/20 02:23:50;;;;;;;3.55;2.47;;;;;;;20.37;35.44;98866.31;5137064;27;20523;-94
2022/07/20 02:26:17;;;;;;;4.80;2.60;;;;;;;20.48;35.38;98879.13;5137203;27;20078;-93
2022/07/20 02:28:43;;;;;;;3.78;2.25;;;;;;;20.59;35.82;98900.94;5137220;27;20129;-94
2022/07/20 02:31:10;;;;;;;3.83;2.50;;;;;;;20.34;35.47;98869.22;5137129;27;20522;-93
2022/07/20 02:33:37;;;;;;;3.83;2.53;;;;;;;20.53;34.72;98869.72;5137090;27;20055;-92
2022/07/20 02:36:04;;;;;;;3.90;2.20;;;;;;;20.76;35.04;98882.72;5138609;27;20078;-93
2022/07/20 02:38:30;;;;;;;3.60;2.40;;;;;;;20.69;36.19;98866.06;5138722;27;20123;-93
2022/07/20 02:40:56;;;;;;;6.53;2.70;;;;;;;20.85;35.74;98892.91;5138832;27;20063;-93
2022/07/20 02:43:22;;;;;;;6.22;2.80;;;;;;;20.65;37.26;98873.50;5138125;27;20476;-94
2022/07/20 02:45:47;;;;;;;7.88;2.92;;;;;;;20.70;37.36;98886.69;5138139;27;20051;-95
2022/07/20 02:48:15;;;;;;;5.43;3.03;;;;;;;20.51;37.76;98866.28;5137621;27;20047;-93
2022/07/20 02:50:41;;;;;;;7.65;3.13;;;;;;;20.48;38.61;98879.13;5137133;27;20050;-93
2022/07/20 02:53:08;;;;;;;4.75;2.92;;;;;;;20.55;38.85;98893.94;5137842;27;20043;-96
2022/07/20 02:55:34;;;;;;;5.43;3.15;;;;;;;20.30;39.14;98873.09;5137575;27;20047;-95
2022/07/20 02:58:00;;;;;;;4.95;2.72;;;;;;;20.16;39.48;98870.44;5137628;27;20051;-94
2022/07/20 03:00:27;;;;;;;6.78;3.28;;;;;;;19.96;39.56;98866.31;5136898;27;20042;-94
2022/07/20 03:02:53;;;;;;;5.38;2.97;;;;;;;19.83;39.58;98877.03;5136496;27;20051;-94
2022/07/20 03:05:21;;;;;;;8.35;3.25;;;;;;;19.76;39.25;98884.63;5137874;27;20043;-94
2022/07/20 03:07:47;;;;;;;5.83;2.53;;;;;;;19.78;39.07;98898.00;5136967;27;20070;-92
2022/07/20 03:10:13;;;;;;;4.07;2.70;;;;;;;19.61;38.75;98880.19;5136405;27;20287;-94
2022/07/20 03:12:40;;;;;;;4.78;2.55;;;;;;;19.74;39.54;98912.69;5136222;27;20046;-94
2022/07/20 03:15:07;;;;;;;4.18;3.00;;;;;;;19.70;40.08;98910.16;5136305;27;20451;-93
2022/07/20 03:17:40;;;;;;;5.65;2.90;;;;;;;19.61;41.08;98899.91;5136752;27;20039;-94
2022/07/20 03:20:07;;;;;;;4.78;2.75;;;;;;;19.48;40.12;98897.09;5134524;27;20050;-94
2022/07/20 03:22:35;;;;;;;6.35;2.90;;;;;;;19.38;40.70;98887.84;5137196;27;20059;-94
2022/07/20 03:25:00;;;;;;;4.15;2.50;;;;;;;19.22;39.75;98881.66;5136441;27;20084;-96
2022/07/20 03:27:26;;;;;;;5.05;2.83;;;;;;;19.24;37.74;98893.22;5136151;27;20035;-94
2022/07/20 03:29:52;;;;;;;4.85;2.38;;;;;;;19.07;38.54;98886.16;5136130;27;20130;-96
2022/07/20 03:32:18;;;;;;;4.78;2.60;;;;;;;19.03;39.89;98890.84;5137125;27;20043;-93
2022/07/20 03:34:44;;;;;;;3.80;2.60;;;;;;;19.06;40.61;98893.38;5136861;27;20485;-94
2022/07/20 03:37:10;;;;;;;6.25;2.97;;;;;;;19.06;41.22;98896.06;5136351;27;20054;-94
2022/07/20 03:39:37;;;;;;;6.47;2.97;;;;;;;19.08;42.09;98910.31;5136297;27;20043;-94
2022/07/20 03:42:03;;;;;;;4.95;2.85;;;;;;;19.18;41.84;98936.72;5135817;27;20134;-94
2022/07/20 03:44:29;;;;;;;5.60;2.90;;;;;;;19.04;41.82;98914.16;5135545;27;20445;-92
2022/07/20 03:46:55;;;;;;;7.28;3.15;;;;;;;18.99;42.15;98924.31;5135614;27;20047;-94
2022/07/20 03:49:21;;;;;;;5.75;2.90;;;;;;;18.84;42.12;98917.16;5135852;27;20492;-94
2022/07/20 03:51:47;;;;;;;4.72;2.92;;;;;;;18.83;42.39;98936.97;5135449;27;20135;-94
2022/07/20 03:54:13;;;;;;;4.45;2.60;;;;;;;18.65;41.88;98901.16;5135857;27;20461;-94
2022/07/20 03:56:40;;;;;;;4.93;2.70;;;;;;;18.60;41.28;98914.88;5136058;27;20081;-93
2022/07/20 03:59:07;;;;;;;4.00;2.33;;;;;;;18.66;39.02;98921.75;5135751;27;20096;-94
2022/07/20 04:01:33;;;;;;;3.13;2.20;;;;;;;18.51;40.80;98901.94;5135553;27;20088;-94
2022/07/20 04:03:59;;;;;;;3.55;2.35;;;;;;;18.71;39.86;98933.13;5136128;27;20039;-93
2022/07/20 04:06:25;;;;;;;3.90;2.58;;;;;;;18.81;39.55;98946.97;5135689;27;20507;-94
2022/07/20 04:08:51;;;;;;;4.75;2.70;;;;;;;18.66;39.84;98914.53;5135449;27;20126;-94
2022/07/20 04:11:17;;;;;;;6.13;3.13;;;;;;;18.86;40.27;98947.56;5135096;27;20146;-95
2022/07/20 04:13:44;;;;;;;4.40;2.50;;;;;;;18.72;39.63;98923.25;5135961;27;20088;-94
2022/07/20 04:16:10;;;;;;;3.55;2.42;;;;;;;18.66;39.33;98910.97;5136188;27;20058;-94
2022/07/20 04:18:36;;;;;;;4.75;2.60;;;;;;;18.89;39.21;98942.00;5136189;27;20405;-93
2022/07/20 04:21:02;;;;;;;3.80;2.40;;;;;;;18.80;40.62;98910.19;5136672;27;20413;-94
2022/07/20 04:23:28;;;;;;;6.57;2.70;;;;;;;18.87;41.64;98933.16;5136669;28;20043;-93
2022/07/20 04:25:54;;;;;;;6.40;2.70;;;;;;;18.73;42.71;98911.50;5136489;28;20074;-93
2022/07/20 04:28:20;;;;;;;5.95;2.60;;;;;;;18.80;43.35;98923.66;5136021;27;20067;-94
2022/07/20 04:30:47;;;;;;;5.55;2.53;;;;;;;18.86;43.60;98947.56;5136584;27;20046;-93
2022/07/20 04:33:13;;;;;;;4.95;2.60;;;;;;;18.75;44.23;98933.81;5136112;27;20075;-94
2022/07/20 04:35:39;;;;;;;5.10;2.60;;;;;;;18.79;44.31;98951.59;5136269;27;20091;-94
2022/07/20 04:38:04;;;;;;;5.63;2.58;;;;;;;18.72;43.13;98934.88;5136065;27;20129;-94
2022/07/20 04:40:30;;;;;;;5.18;2.70;;;;;;;18.73;43.46;98941.13;5136732;27;20070;-95
2022/07/20 04:42:56;;;;;;;5.60;2.70;;;;;;;18.78;44.36;98953.41;5135870;27;20059;-93
2022/07/20 04:45:22;;;;;;;4.45;2.92;;;;;;;18.74;42.79;98941.03;5135643;27;20043;-95
2022/07/20 04:47:49;;;;;;;4.68;2.67;;;;;;;18.78;45.36;98949.81;5135162;28;20051;-94
2022/07/20 04:50:15;;;;;;;4.53;2.70;;;;;;;18.79;45.10;98951.59;5135069;27;20083;-93
2022/07/20 04:52:41;;;;;;;4.50;2.95;;;;;;;18.68;45.89;98939.56;5135243;28;20068;-93
2022/07/20 04:55:08;;;;;;;5.03;2.72;;;;;;;18.76;46.95;98957.09;5135515;27;20130;-95
2022/07/20 04:57:34;;;;;;;5.38;2.88;;;;;;;18.72;47.35;98932.19;5137368;27;20080;-94
2022/07/20 04:59:59;;;;;;;6.63;2.83;;;;;;;18.81;46.66;98944.28;5139256;27;20039;-94
2022/07/20 05:02:25;;;;;;;5.07;2.80;;;;;;;18.75;46.32;98933.81;5138925;27;20076;-94
2022/07/20 05:04:52;;;;;;;5.28;2.88;;;;;;;18.76;46.60;98930.16;5138886;27;20134;-93
2022/07/20 05:07:18;;;;;;;8.90;3.67;;;;;;;18.93;45.97;98942.69;5139317;27;20043;-94
2022/07/20 05:09:44;;;;;;;6.22;3.53;;;;;;;19.26;45.19;98962.28;5139517;27;20039;-94
2022/07/20 05:12:10;;;;;;;11.80;3.95;;;;;;;20.03;44.02;98951.34;5139775;27;20069;-94
2022/07/20 05:14:37;;;;;;;7.47;3.63;;;;;;;20.76;42.22;98940.34;5140018;27;20040;-95
2022/07/20 05:17:03;;;;;;;6.38;3.58;;;;;;;21.54;41.55;98958.56;5139601;27;20039;-94
2022/07/20 05:19:29;;;;;;;5.95;3.63;;;;;;;21.89;40.14;98929.00;5139539;27;20473;-94
2022/07/20 05:21:57;;;;;;;6.10;3.72;;;;;;;22.20;39.96;98915.09;5140133;27;20397;-95
2022/07/20 05:24:23;;;;;;;9.65;4.05;;;;;;;22.63;39.83;98956.22;5140992;27;20041;-94
2022/07/20 05:26:49;;;;;;;9.10;3.72;;;;;;;22.84;38.58;98951.06;5138637;27;20043;-94
2022/07/20 05:29:15;;;;;;;6.65;3.45;;;;;;;22.95;39.17;98942.13;5138824;27;20082;-95
2022/07/20 05:31:41;;;;;;;6.20;3.15;;;;;;;23.11;36.70;98933.72;5139796;27;20039;-95
2022/07/20 05:34:07;;;;;;;4.60;2.80;;;;;;;23.12;35.98;98928.16;5140267;27;20489;-95
2022/07/20 05:36:33;;;;;;;5.03;2.90;;;;;;;23.19;35.74;98938.56;5139532;27;20039;-96
2022/07/20 05:39:00;;;;;;;7.38;3.00;;;;;;;23.26;35.58;98951.53;5139846;27;20100;-94
2022/07/20 05:41:26;;;;;;;8.20;3.00;;;;;;;23.38;35.39;98947.03;5139410;27;20043;-95
2022/07/20 05:43:52;;;;;;;6.68;2.90;;;;;;;23.55;35.29;98962.88;5138639;27;20043;-95
2022/07/20 05:46:18;;;;;;;8.88;3.13;;;;;;;23.56;34.97;98950.16;5138659;27;20559;-96
2022/07/20 05:48:44;;;;;;;7.30;2.88;;;;;;;23.73;34.75;98948.84;5138604;27;20452;-94
2022/07/20 05:51:10;;;;;;;9.32;3.20;;;;;;;23.76;34.51;98954.03;5138831;27;20043;-95
2022/07/20 05:53:35;;;;;;;5.68;2.80;;;;;;;23.94;34.08;98968.91;5138431;27;20078;-95
2022/07/20 05:56:04;;;;;;;6.40;2.70;;;;;;;23.89;34.58;98943.09;5138921;27;20576;-95
2022/07/20 05:58:30;;;;;;;5.15;2.70;;;;;;;24.14;34.65;98972.75;5138204;27;20449;-94
2022/07/20 06:00:56;;;;;;;4.57;2.90;;;;;;;24.09;34.59;98965.94;5138639;27;20072;-94
2022/07/20 06:03:21;;;;;;;8.20;2.60;;;;;;;24.03;34.39;98941.97;5139294;27;20396;-94
2022/07/20 06:05:47;;;;;;;5.80;2.90;;;;;;;24.10;34.24;98946.81;5140853;27;20138;-94
2022/07/20 06:08:13;;;;;;;4.95;2.88;;;;;;;24.22;34.02;98971.25;5140321;27;20040;-94
2022/07/20 06:10:39;;;;;;;8.82;3.13;;;;;;;24.29;33.94;98953.47;5139985;27;20392;-95
2022/07/20 06:13:07;;;;;;;6.03;2.72;;;;;;;24.13;33.49;98953.84;5144818;27;20039;-96
2022/07/20 06:15:33;;;;;;;8.50;3.08;;;;;;;24.24;33.90;98952.97;5142676;27;20047;-93
2022/07/20 06:17:59;;;;;;;6.03;3.13;;;;;;;24.27;33.75;98942.75;5143099;27;20110;-95
2022/07/20 06:20:24;;;;;;;6.80;2.88;;;;;;;24.40;33.97;98959.78;5144984;27;20063;-96
2022/07/20 06:22:51;;;;;;;7.43;3.70;;;;;;;24.48;33.60;98955.56;5147134;27;20067;-96
2022/07/20 06:25:18;;;;;;;7.68;3.10;;;;;;;24.63;33.70;98957.06;5144224;27;20039;-93
2022/07/20 06:27:44;;;;;;;6.72;2.90;;;;;;;24.84;33.72;98978.03;5140156;27;20039;-94
2022/07/20 06:30:12;;;;;;;5.93;3.00;;;;;;;24.93;33.14;98978.13;5137738;27;20047;-94
2022/07/20 06:32:38;;;;;;;8.02;3.55;;;;;;;24.90;33.35;98955.78;5138118;27;20055;-95
2022/07/20 06:35:05;;;;;;;5.95;2.80;;;;;;;24.48;32.90;98942.84;5139371;27;20053;-95
2022/07/20 06:37:32;;;;;;;6.53;2.75;;;;;;;24.69;33.11;98951.13;5145475;27;20061;-95
2022/07/20 06:39:58;;;;;;;6.22;2.83;;;;;;;25.06;32.96;98983.41;5143770;27;20047;-95
2022/07/20 06:42:24;;;;;;;5.88;3.17;;;;;;;25.15;32.43;98970.91;5144547;27;20107;-94
2022/07/20 06:44:50;;;;;;;7.13;2.90;;;;;;;25.33;31.98;98952.16;5144243;27;20498;-95
2022/07/20 06:47:18;;;;;;;6.65;3.08;;;;;;;25.55;31.38;98954.78;5144619;27;20046;-94
2022/07/20 06:49:45;;;;;;;7.47;2.97;;;;;;;25.64;31.24;98955.84;5143093;27;20049;-94
2022/07/20 06:52:10;;;;;;;5.07;3.00;;;;;;;25.76;31.49;98949.34;5140323;27;20130;-93
2022/07/20 06:54:36;;;;;;;8.80;3.17;;;;;;;25.66;31.25;98958.47;5140651;27;20067;-94
2022/07/20 06:57:02;;;;;;;8.05;2.70;;;;;;;25.89;31.80;98970.09;5142474;27;20046;-95
2022/07/20 06:59:28;;;;;;;6.45;2.88;;;;;;;26.11;31.20;98978.13;5142272;27;20130;-95
2022/07/20 07:01:54;;;;;;;6.25;2.97;;;;;;;26.28;31.03;98973.03;5140267;27;20047;-95
2022/07/20 07:04:22;;;;;;;6.40;3.00;;;;;;;26.50;30.78;98963.78;5143071;27;20050;-95
2022/07/20 07:06:48;;;;;;;6.55;2.92;;;;;;;26.60;29.98;98951.09;5142653;27;20043;-95
2022/07/20 07:09:14;;;;;;;6.07;2.80;;;;;;;26.86;29.63;98967.81;5146730;27;20040;-93
2022/07/20 07:11:40;;;;;;;6.70;3.03;;;;;;;26.91;29.78;98954.59;5143249;27;20043;-93
2022/07/20 07:14:06;;;;;;;7.68;3.20;;;;;;;27.05;29.17;98950.63;5143656;27;20077;-95
2022/07/20 07:16:32;;;;;;;6.95;3.42;;;;;;;27.08;29.28;98953.03;5143085;27;20050;-94
2022/07/20 07:18:58;;;;;;;6.68;2.85;;;;;;;27.21;29.01;98941.84;5142043;27;20392;-93
2022/07/20 07:21:26;;;;;;;6.28;2.90;;;;;;;27.38;29.28;98954.81;5142363;27;20122;-93
2022/07/20 07:23:52;;;;;;;11.77;3.03;;;;;;;27.45;28.79;98938.72;5143397;27;20074;-94
2022/07/20 07:26:20;;;;;;;6.47;3.00;;;;;;;27.60;28.04;98950.06;5142827;27;20031;-93
2022/07/20 07:28:47;;;;;;;9.32;3.25;;;;;;;27.51;28.41;98940.00;5141567;27;20040;-95
2022/07/20 07:31:15;;;;;;;6.53;2.80;;;;;;;27.89;28.27;98966.47;5141566;27;20126;-92
2022/07/20 07:33:41;;;;;;;5.53;2.95;;;;;;;27.93;28.18;98935.06;5141128;27;20547;-94
2022/07/20 07:36:07;;;;;;;7.22;3.42;;;;;;;28.18;27.82;98949.09;5141715;27;20066;-94
2022/07/20 07:38:34;;;;;;;9.02;3.08;;;;;;;28.32;26.82;98945.00;5140559;27;20496;-94
2022/07/20 07:41:01;;;;;;;7.03;3.17;;;;;;;28.56;26.96;98974.59;5140055;27;20089;-94
2022/07/20 07:43:27;;;;;;;7.95;3.25;;;;;;;28.72;26.34;98969.34;5138513;27;20492;-93
2022/07/20 07:45:53;;;;;;;11.60;3.00;;;;;;;28.68;26.29;98943.28;5138368;27;20039;-94
2022/07/20 07:48:19;;;;;;;6.28;3.03;;;;;;;28.90;27.35;98935.66;5139681;27;20126;-93
2022/07/20 07:50:54;;;;;;;7.28;2.83;;;;;;;29.16;26.57;98946.75;5140253;27;20489;-94
2022/07/20 07:53:20;;;;;;;6.30;2.90;;;;;;;29.20;25.25;98932.59;5138127;27;20544;-94
2022/07/20 07:55:47;;;;;;;8.73;3.10;;;;;;;29.32;25.32;98924.13;5143400;27;20043;-94
2022/07/20 07:58:13;;;;;;;6.28;2.90;;;;;;;29.08;25.48;98923.72;5139078;27;20069;-96
2022/07/20 08:00:40;;;;;;;9.45;2.88;;;;;;;29.40;25.38;98944.22;5144429;27;20054;-95
2022/07/20 08:03:07;;;;;;;6.60;3.17;;;;;;;29.75;24.86;98958.94;5142701;27;20446;-93
2022/07/20 08:05:36;;;;;;;5.30;2.75;;;;;;;29.87;24.01;98941.22;5141308;27;20043;-95
2022/07/20 08:08:06;;;;;;;9.32;2.70;;;;;;;29.99;23.81;98933.56;5142696;27;20076;-94
2022/07/20 08:10:33;;;;;;;8.20;2.90;;;;;;;30.21;23.67;98945.91;5142319;27;20078;-96
2022/07/20 08:13:01;;;;;;;8.07;2.90;;;;;;;30.07;22.89;98919.06;5139139;28;20063;-94
2022/07/20 08:15:27;;;;;;;5.33;2.70;;;;;;;30.33;23.28;98916.31;5140107;27;20050;-94
2022/07/20 08:17:52;;;;;;;5.18;2.80;;;;;;;30.77;22.83;98937.25;5139664;28;20107;-94
2022/07/20 08:20:21;;;;;;;4.97;2.60;;;;;;;30.85;22.18;98915.31;5139832;27;20380;-94
2022/07/20 08:22:47;;;;;;;5.55;2.72;;;;;;;31.04;21.26;98922.41;5137485;28;20043;-94
2022/07/20 08:25:13;;;;;;;5.88;2.72;;;;;;;30.64;21.52;98932.22;5136675;28;20429;-93
2022/07/20 08:27:39;;;;;;;4.82;2.72;;;;;;;30.50;21.54;98925.47;5137603;27;20046;-95
2022/07/20 08:30:07;;;;;;;7.05;2.92;;;;;;;30.81;21.65;98927.63;5139385;28;20047;-94
2022/07/20 08:32:34;;;;;;;4.57;2.33;;;;;;;30.81;20.48;98920.25;5140307;27;20031;-92
2022/07/20 08:35:00;;;;;;;4.35;2.28;;;;;;;31.10;19.78;98940.97;5142610;27;20047;-95
2022/07/20 08:37:26;;;;;;;4.15;2.40;;;;;;;31.23;19.93;98916.63;5145449;27;20039;-94
2022/07/20 08:39:52;;;;;;;5.82;2.50;;;;;;;31.35;18.38;98916.28;5143381;27;20047;-95
2022/07/20 08:42:18;;;;;;;5.03;2.40;;;;;;;31.41;18.34;98907.34;5143672;27;20134;-93
2022/07/20 08:44:44;;;;;;;4.03;2.30;;;;;;;31.77;17.95;98915.25;5141867;27;20047;-95
2022/07/20 08:47:13;;;;;;;3.75;2.13;;;;;;;32.00;17.36;98912.66;5141912;27;20373;-95
2022/07/20 08:49:41;;;;;;;;;;;;;;;32.02;16.38;98932.59;5141368;27;20064;-95
2022/07/20 08:52:07;;;;;;;6.45;2.40;;;;;;;31.69;17.75;98914.22;5143252;27;19925;-95
2022/07/20 08:54:33;;;;;;;4.10;2.28;;;;;;;31.70;16.77;98907.69;5145811;27;20122;-93
2022/07/20 08:57:06;;;;;;;3.47;2.05;;;;;;;32.04;16.24;98901.13;5143893;27;20066;-95
2022/07/20 08:59:32;;;;;;;3.33;1.90;;;;;;;32.23;16.46;98896.28;5140642;27;20051;-94
2022/07/20 09:01:58;;;;;;;3.35;2.00;;;;;;;32.46;17.11;98907.34;5142269;27;20512;-95
2022/07/20 09:04:25;;;;;;;3.92;2.33;;;;;;;32.81;15.88;98925.28;5141922;27;20039;-95
2022/07/20 09:06:51;;;;;;;4.77;2.30;;;;;;;32.61;16.40;98913.84;5141684;27;20051;-94
2022/07/20 09:09:19;;;;;;;4.32;2.20;;;;;;;32.38;17.08;98904.63;5140022;27;20049;-95
2022/07/20 09:11:46;;;;;;;5.03;2.30;;;;;;;32.49;15.93;98896.00;5141469;27;20054;-96
2022/07/20 09:14:12;;;;;;;5.00;2.10;;;;;;;32.79;16.00;98899.84;5141463;27;20395;-96
2022/07/20 09:16:43;;;;;;;3.83;2.22;;;;;;;32.92;15.30;98911.13;5141533;27;20047;-95
2022/07/20 09:19:10;;;;;;;3.47;2.20;;;;;;;33.11;15.35;98898.78;5146690;27;20039;-96
2022/07/20 09:21:38;;;;;;;4.07;2.20;;;;;;;33.41;15.75;98923.72;5147461;27;20035;-95
2022/07/20 09:24:06;;;;;;;3.57;2.10;;;;;;;33.44;14.79;98901.31;5146796;27;20060;-95
2022/07/20 09:26:33;;;;;;;2.55;1.98;;;;;;;33.50;14.91;98897.78;5149778;27;20134;-94
2022/07/20 09:29:01;;;;;;;3.75;2.20;;;;;;;33.50;14.91;98897.78;5148412;27;20058;-95
2022/07/20 09:31:30;;;;;;;4.03;2.40;;;;;;;33.58;14.58;98898.78;5146537;27;20039;-93
2022/07/20 09:34:00;;;;;;;2.78;1.92;;;;;;;33.74;14.71;98901.38;5143918;27;20100;-94
2022/07/20 09:36:29;;;;;;;3.88;1.95;;;;;;;33.57;13.86;98900.66;5140311;27;20047;-94
2022/07/20 09:39:06;;;;;;;4.00;2.00;;;;;;;33.27;14.62;98908.84;5140475;27;20039;-94
2022/07/20 09:41:36;;;;;;;4.13;2.08;;;;;;;33.54;14.18;98912.06;5146266;27;20049;-96
2022/07/20 09:44:05;;;;;;;3.42;1.90;;;;;;;33.04;14.21;98891.41;5142268;27;20039;-95
2022/07/20 09:46:33;;;;;;;3.22;2.08;;;;;;;33.31;14.40;98901.03;5145086;27;20599;-95
2022/07/20 09:49:02;;;;;;;3.38;2.13;;;;;;;33.51;15.11;98888.47;5142469;27;20043;-94
2022/07/20 09:51:30;;;;;;;3.15;2.10;;;;;;;33.68;14.05;98883.72;5144754;27;20463;-94
2022/07/20 09:54:01;;;;;;;3.67;2.17;;;;;;;33.87;13.62;98879.53;5145218;27;20047;-94
2022/07/20 09:56:31;;;;;;;4.85;2.30;;;;;;;33.89;14.20;98876.59;5143452;27;20047;-95
2022/07/20 09:58:59;;;;;;;2.83;1.98;;;;;;;34.26;14.07;98896.91;5145812;27;20099;-94
2022/07/20 10:01:27;;;;;;;4.15;2.15;;;;;;;34.21;13.69;98875.41;5148127;27;20061;-95
2022/07/20 10:03:55;;;;;;;5.28;2.20;;;;;;;34.35;13.46;98891.09;5143385;27;20046;-94
2022/07/20 10:06:23;;;;;;;2.83;2.08;;;;;;;34.32;13.83;98866.63;5143493;27;20115;-93
2022/07/20 10:08:50;;;;;;;5.57;2.30;;;;;;;34.39;14.65;98866.69;5143006;27;20047;-96
2022/07/20 10:11:19;;;;;;;5.10;2.25;;;;;;;34.23;13.68;98862.25;5141618;27;20050;-95
2022/07/20 10:13:48;;;;;;;4.25;2.22;;;;;;;34.21;14.87;98866.25;5142897;27;20043;-95
2022/07/20 10:16:23;;;;;;;4.72;2.30;;;;;;;34.19;14.30;98862.84;5139977;27;20043;-94
2022/07/20 10:18:50;;;;;;;3.67;2.20;;;;;;;33.77;14.03;98884.47;5139629;27;20043;-95
2022/07/20 10:21:34;;;;;;;3.85;2.10;;;;;;;34.00;14.12;98889.91;5141416;27;20392;-93
2022/07/20 10:24:25;;;;;;;3.85;2.20;;;;;;;34.25;13.42;98879.50;5138572;27;20500;-93
2022/07/20 10:26:55;;;;;;;3.00;2.08;;;;;;;33.60;13.67;98867.22;5137370;27;20043;-93
2022/07/20 10:29:28;;;;;;;3.58;2.08;;;;;;;33.96;14.37;98870.13;5139626;27;20050;-95
2022/07/20 10:31:56;;;;;;;3.33;2.30;;;;;;;33.88;14.38;98866.63;5139325;27;20070;-93
2022/07/20 10:34:37;;;;;;;3.80;2.22;;;;;;;34.27;14.50;98880.16;5140014;27;20496;-95
2022/07/20 10:37:25;;;;;;;3.80;2.10;;;;;;;34.54;13.74;98881.34;5141918;27;20047;-95
2022/07/20 10:39:53;;;;;;;4.50;2.20;;;;;;;34.63;13.36;98872.97;5143270;27;20031;-95
2022/07/20 10:42:28;;;;;;;3.85;2.25;;;;;;;34.54;14.47;98839.91;5140780;27;20050;-94
2022/07/20 10:44:55;;;;;;;4.55;2.33;;;;;;;34.81;13.68;98864.25;5139320;27;20043;-94
2022/07/20 10:47:42;;;;;;;3.97;2.20;;;;;;;34.95;13.55;98869.75;5140833;27;20039;-94
2022/07/20 10:50:10;;;;;;;5.00;2.10;;;;;;;34.88;13.35;98845.88;5138543;27;20135;-94
2022/07/20 10:52:36;;;;;;;4.78;2.35;;;;;;;34.80;13.27;98857.03;5138429;27;20042;-94
2022/07/20 10:55:04;;;;;;;3.83;2.40;;;;;;;34.77;13.76;98855.53;5138761;27;20496;-92
2022/07/20 10:57:31;;;;;;;;;;;;;;;34.71;13.35;98859.06;5138301;27;20035;-95
2022/07/20 11:00:07;;;;;;;3.58;2.17;;;;;;;34.84;13.98;98847.31;5139267;27;19971;-94
2022/07/20 11:02:34;;;;;;;4.30;2.20;;;;;;;34.90;13.69;98830.81;5140205;27;20035;-95
2022/07/20 11:05:00;;;;;;;5.20;2.20;;;;;;;34.76;12.98;98826.19;5140830;27;20035;-94
2022/07/20 11:07:34;;;;;;;3.58;2.00;;;;;;;34.64;13.30;98834.13;5138176;27;20043;-94
2022/07/20 11:10:18;;;;;;;5.13;2.10;;;;;;;34.81;13.13;98837.50;5138839;27;20055;-95
2022/07/20 11:12:54;;;;;;;3.30;2.10;;;;;;;34.85;12.65;98819.50;5140662;27;20070;-96
2022/07/20 11:15:20;;;;;;;5.57;2.28;;;;;;;35.05;12.93;98838.19;5138793;27;20027;-95
2022/07/20 11:17:46;;;;;;;3.28;2.10;;;;;;;34.90;13.17;98841.00;5137101;27;20039;-93
2022/07/20 11:20:17;;;;;;;4.95;2.28;;;;;;;34.97;13.08;98811.53;5137479;27;20043;-94
2022/07/20 11:22:44;;;;;;;3.38;2.15;;;;;;;34.93;12.58;98802.75;5137796;27;20092;-94
2022/07/20 11:25:10;;;;;;;3.70;2.20;;;;;;;35.15;12.45;98830.44;5138187;27;20051;-94
2022/07/20 11:27:35;;;;;;;3.65;2.28;;;;;;;35.34;12.78;98826.97;5138209;27;20035;-93
2022/07/20 11:30:04;;;;;;;4.45;2.20;;;;;;;35.32;12.83;98808.88;5139085;27;20405;-95
2022/07/20 11:32:29;;;;;;;4.70;2.00;;;;;;;35.49;12.93;98826.06;5137711;27;20036;-93
2022/07/20 11:34:55;;;;;;;4.03;2.20;;;;;;;35.36;12.33;98791.69;5137163;27;20043;-95
2022/07/20 11:37:22;;;;;;;3.15;1.95;;;;;;;35.51;13.16;98804.59;5136459;27;20051;-94